createdAt,value
2023-01-19T00:02:23.461Z,31.15
2023-01-19T00:07:25.542Z,36.03
2023-01-19T00:12:27.858Z,31.00
2023-01-19T00:17:30.152Z,30.05
2023-01-19T00:22:32.204Z,30.63
2023-01-19T00:27:34.943Z,29.83
2023-01-19T00:32:37.109Z,27.58
2023-01-19T00:37:39.201Z,26.85
2023-01-19T00:42:44.154Z,27.25
2023-01-19T00:47:48.174Z,27.75
2023-01-19T00:52:51.959Z,25.63
2023-01-19T00:57:54.475Z,32.75
2023-01-19T01:02:56.822Z,31.02
2023-01-19T01:07:58.982Z,27.33
2023-01-19T01:13:21.290Z,27.42
2023-01-19T01:18:23.911Z,24.83
2023-01-19T01:23:26.078Z,27.52
2023-01-19T01:28:28.218Z,22.75
2023-01-19T01:33:41.031Z,23.85
2023-01-19T01:38:44.732Z,18.83
2023-01-19T01:43:54.784Z,21.38
2023-01-19T01:49:05.588Z,19.73
2023-01-19T01:54:27.037Z,21.88
2023-01-19T01:59:38.935Z,22.67
2023-01-19T02:04:47.094Z,23.80
2023-01-19T02:10:08.338Z,20.40
2023-01-19T02:20:20.884Z,25.05
2023-01-19T02:25:23.968Z,19.98
2023-01-19T02:30:26.315Z,21.35
2023-01-19T02:35:28.644Z,17.45
2023-01-19T02:40:31.356Z,18.73
2023-01-19T02:45:33.922Z,16.65
2023-01-19T02:50:38.833Z,16.38
2023-01-19T02:55:45.107Z,16.33
2023-01-19T03:01:00.899Z,16.42
2023-01-19T03:06:14.439Z,14.40
2023-01-19T03:11:16.661Z,12.40
2023-01-19T03:16:29.571Z,16.25
2023-01-19T03:21:35.969Z,13.55
2023-01-19T03:26:43.941Z,9.63
2023-01-19T03:31:49.780Z,10.27
2023-01-19T03:36:54.820Z,9.02
2023-01-19T03:42:04.143Z,8.50
2023-01-19T03:47:10.065Z,7.70
2023-01-19T03:52:12.811Z,7.35
2023-01-19T03:57:15.119Z,6.57
2023-01-19T04:02:17.470Z,6.20
2023-01-19T04:07:19.674Z,4.72
2023-01-19T04:12:21.793Z,4.65
2023-01-19T04:17:23.819Z,3.08
2023-01-19T04:22:26.383Z,3.55
2023-01-19T04:27:28.961Z,4.25
2023-01-19T04:32:32.240Z,4.38
2023-01-19T04:37:34.257Z,5.18
2023-01-19T04:42:36.335Z,7.80
2023-01-19T04:47:38.834Z,8.13
2023-01-19T04:52:41.040Z,6.97
2023-01-19T04:57:44.053Z,7.70
2023-01-19T05:02:46.367Z,6.97
2023-01-19T05:07:48.452Z,7.18
2023-01-19T05:12:51.218Z,8.20
2023-01-19T05:17:53.308Z,7.38
2023-01-19T05:22:55.356Z,6.20
2023-01-19T05:27:57.695Z,9.30
2023-01-19T05:33:00.229Z,8.98
2023-01-19T05:38:02.507Z,7.72
2023-01-19T05:43:05.222Z,8.15
2023-01-19T05:48:10.328Z,9.02
2023-01-19T05:53:12.428Z,7.55
2023-01-19T05:58:14.509Z,7.35
2023-01-19T06:03:16.580Z,9.68
2023-01-19T06:08:19.182Z,11.90
2023-01-19T06:13:21.407Z,13.27
2023-01-19T06:18:23.633Z,16.23
2023-01-19T06:23:26.900Z,17.85
2023-01-19T06:28:29.171Z,23.30
2023-01-19T06:33:31.557Z,21.52
2023-01-19T06:38:33.680Z,18.52
2023-01-19T06:43:35.684Z,20.05
2023-01-19T06:48:37.861Z,24.90
2023-01-19T06:53:40.156Z,27.27
2023-01-19T06:58:42.672Z,33.35
2023-01-19T07:03:46.879Z,39.95
2023-01-19T07:08:49.229Z,44.13
2023-01-19T07:13:54.420Z,38.05
2023-01-19T07:18:56.628Z,43.30
2023-01-19T07:23:58.753Z,41.25
2023-01-19T07:29:00.896Z,46.72
2023-01-19T07:34:03.193Z,41.35
2023-01-19T07:39:05.474Z,52.63
2023-01-19T07:44:08.712Z,40.90
2023-01-19T07:49:11.557Z,33.97
2023-01-19T07:54:13.585Z,35.20
2023-01-19T07:59:15.704Z,35.67
2023-01-19T08:04:19.028Z,35.92
2023-01-19T08:09:21.248Z,26.00
2023-01-19T08:14:23.318Z,33.30
2023-01-19T08:19:25.401Z,32.35
2023-01-19T08:24:29.061Z,40.53
2023-01-19T08:29:31.981Z,37.80
2023-01-19T08:34:34.104Z,39.20
2023-01-19T08:39:36.196Z,43.03
2023-01-19T08:44:46.642Z,44.85
2023-01-19T08:49:51.856Z,51.75
2023-01-19T08:54:54.115Z,54.60
2023-01-19T08:59:56.129Z,45.75
2023-01-19T09:05:07.544Z,42.00
2023-01-19T09:10:13.612Z,44.00
2023-01-19T09:15:47.481Z,43.17
2023-01-19T09:21:08.790Z,44.45
2023-01-19T09:26:22.291Z,35.28
2023-01-19T09:31:31.320Z,45.20
2023-01-19T09:36:39.724Z,37.60
2023-01-19T09:42:02.309Z,38.42
2023-01-19T09:47:26.343Z,39.65
2023-01-19T09:52:47.553Z,41.72
2023-01-19T09:58:04.806Z,41.63
2023-01-19T10:09:15.137Z,34.42
2023-01-19T10:14:40.031Z,39.53
2023-01-19T10:19:47.215Z,46.67
2023-01-19T10:25:17.522Z,46.28
2023-01-19T10:30:25.576Z,42.10
2023-01-19T10:35:29.308Z,37.30
2023-01-19T10:40:42.985Z,45.10
2023-01-19T10:45:50.354Z,42.35
2023-01-19T10:51:13.002Z,44.53
2023-01-19T10:56:23.686Z,45.60
2023-01-19T11:06:30.608Z,46.35
2023-01-19T11:11:45.543Z,48.53
2023-01-19T11:16:51.594Z,43.60
2023-01-19T11:22:22.681Z,42.28
2023-01-19T11:27:25.626Z,33.65
2023-01-19T11:32:28.163Z,49.92
2023-01-19T11:37:34.314Z,41.83
2023-01-19T11:42:37.190Z,39.63
2023-01-19T11:47:49.702Z,44.55
2023-01-19T11:53:04.549Z,43.97
2023-01-19T11:58:07.007Z,47.28
2023-01-19T12:03:11.675Z,46.22
2023-01-19T12:08:18.670Z,50.33
2023-01-19T12:13:23.055Z,51.20
2023-01-19T12:18:33.369Z,40.67
2023-01-19T12:23:53.404Z,46.53
2023-01-19T12:29:01.296Z,37.08
2023-01-19T12:34:48.993Z,40.95
2023-01-19T12:39:51.310Z,58.75
2023-01-19T12:45:16.413Z,528.47
2023-01-19T12:50:21.120Z,655.85
2023-01-19T12:55:27.482Z,1999.90
2023-01-19T13:00:37.386Z,1045.57
2023-01-19T13:05:39.426Z,1914.03
2023-01-19T13:10:53.891Z,1999.90
2023-01-19T13:16:00.535Z,816.53
2023-01-19T13:21:06.375Z,70.45
2023-01-19T13:26:15.317Z,23.73
2023-01-19T13:31:18.483Z,20.60
2023-01-19T13:36:31.656Z,24.70
2023-01-19T13:41:39.552Z,27.23
2023-01-19T13:46:42.136Z,19.75
2023-01-19T13:51:44.400Z,19.58
2023-01-19T13:56:50.187Z,22.63
2023-01-19T14:01:54.145Z,23.52
2023-01-19T14:07:00.545Z,25.65
2023-01-19T14:12:07.630Z,24.85
2023-01-19T14:17:27.791Z,29.30
2023-01-19T14:22:43.641Z,28.75
2023-01-19T14:27:45.629Z,28.92
2023-01-19T14:32:47.766Z,30.13
2023-01-19T14:37:51.572Z,29.02
2023-01-19T14:42:57.986Z,35.35
2023-01-19T14:48:17.704Z,38.08
2023-01-19T14:53:24.270Z,33.92
2023-01-19T14:58:27.537Z,38.22
2023-01-19T15:03:43.546Z,37.50
2023-01-19T15:08:49.940Z,44.97
2023-01-19T15:13:52.660Z,42.03
2023-01-19T15:18:55.166Z,45.53
2023-01-19T15:23:58.485Z,44.25
2023-01-19T15:29:00.921Z,45.08
2023-01-19T15:34:03.007Z,53.92
2023-01-19T15:39:05.391Z,50.75
2023-01-19T15:44:10.750Z,51.70
2023-01-19T15:49:13.024Z,52.45
2023-01-19T15:54:19.520Z,56.45
2023-01-19T15:59:21.589Z,52.10
2023-01-19T16:04:23.690Z,54.65
2023-01-19T16:09:25.803Z,52.72
2023-01-19T16:14:27.947Z,53.67
2023-01-19T16:19:30.064Z,50.88
2023-01-19T16:24:32.418Z,47.03
2023-01-19T16:29:34.813Z,45.88
2023-01-19T16:34:36.821Z,52.22
2023-01-19T16:39:39.127Z,49.58
2023-01-19T16:44:41.354Z,61.72
2023-01-19T16:49:43.515Z,52.67
2023-01-19T16:54:45.768Z,47.92
2023-01-19T16:59:47.825Z,49.90
2023-01-19T17:04:49.919Z,53.70
2023-01-19T17:09:52.370Z,53.38
2023-01-19T17:14:54.558Z,48.80
2023-01-19T17:19:56.690Z,58.80
2023-01-19T17:24:58.892Z,55.15
2023-01-19T17:30:01.190Z,55.38
2023-01-19T17:35:03.539Z,52.78
2023-01-19T17:40:06.211Z,64.35
2023-01-19T17:45:10.815Z,59.50
2023-01-19T17:50:13.168Z,59.53
2023-01-19T17:55:15.807Z,65.35
2023-01-19T18:00:18.517Z,63.22
2023-01-19T18:05:20.708Z,65.15
2023-01-19T18:10:22.788Z,57.00
2023-01-19T18:15:24.805Z,60.78
2023-01-19T18:20:26.822Z,55.80
2023-01-19T18:25:28.872Z,58.38
2023-01-19T18:30:31.140Z,64.38
2023-01-19T18:35:33.333Z,54.25
2023-01-19T18:40:35.333Z,59.97
2023-01-19T18:45:38.202Z,58.00
2023-01-19T18:51:03.114Z,58.00
2023-01-19T18:56:06.277Z,59.10
2023-01-19T19:01:22.569Z,71.38
2023-01-19T19:06:26.988Z,61.67
2023-01-19T19:11:29.130Z,52.53
2023-01-19T19:16:34.002Z,58.83
2023-01-19T19:21:37.386Z,59.85
2023-01-19T19:26:39.986Z,49.63
2023-01-19T19:31:42.287Z,59.65
2023-01-19T19:36:44.489Z,51.38
2023-01-19T19:41:46.661Z,58.05
2023-01-19T19:46:48.915Z,53.13
2023-01-19T19:51:51.015Z,54.22
2023-01-19T19:56:53.619Z,52.90
2023-01-19T20:01:55.900Z,63.47
2023-01-19T20:06:59.954Z,62.33
2023-01-19T20:12:02.075Z,55.67
2023-01-19T20:17:05.630Z,57.10
2023-01-19T20:22:07.835Z,57.05
2023-01-19T20:27:10.010Z,56.50
2023-01-19T20:32:12.123Z,63.58
2023-01-19T20:37:14.152Z,57.22
2023-01-19T20:42:16.509Z,58.45
2023-01-19T20:47:18.679Z,71.85
2023-01-19T20:52:21.540Z,64.28
2023-01-19T20:57:23.797Z,66.70
2023-01-19T21:02:28.357Z,71.63
2023-01-19T21:07:30.579Z,67.25
2023-01-19T21:12:32.646Z,68.30
2023-01-19T21:17:34.761Z,59.65
2023-01-19T21:22:37.561Z,57.72
2023-01-19T21:27:39.743Z,62.28
2023-01-19T21:32:41.948Z,68.18
2023-01-19T21:37:44.019Z,69.32
2023-01-19T21:42:46.080Z,63.60
2023-01-19T21:47:48.116Z,59.28
2023-01-19T21:52:50.201Z,60.97
2023-01-19T21:57:52.686Z,60.30
2023-01-19T22:03:03.730Z,63.47
2023-01-19T22:08:06.850Z,58.47
2023-01-19T22:13:09.449Z,54.75
2023-01-19T22:18:11.617Z,60.85
2023-01-19T22:23:13.779Z,61.78
2023-01-19T22:28:15.779Z,53.30
2023-01-19T22:33:17.919Z,57.50
2023-01-19T22:38:19.995Z,63.42
2023-01-19T22:43:22.016Z,53.65
2023-01-19T22:48:24.061Z,42.13
2023-01-19T22:53:26.171Z,54.75
2023-01-19T22:58:28.242Z,51.83
2023-01-19T23:03:30.391Z,41.88
2023-01-19T23:08:33.151Z,34.20
2023-01-19T23:13:35.814Z,39.75
2023-01-19T23:18:38.160Z,34.72
2023-01-19T23:23:40.665Z,43.17
2023-01-19T23:28:43.505Z,44.40
2023-01-19T23:33:45.680Z,48.75
2023-01-19T23:38:50.049Z,48.25
2023-01-19T23:43:52.399Z,54.28
2023-01-19T23:48:54.557Z,54.47
2023-01-19T23:53:58.212Z,61.05
2023-01-19T23:59:03.515Z,62.10
